Time;durP1;ratioP1;P1;durP2;ratioP2;P2;SDS_P1;SDS_P2;PMS_P1;PMS_P2;Temp;Humidity;BMP_temperature;BMP_pressure;BME280_temperature;BME280_humidity;BME280_pressure;Samples;Min_cycle;Max_cycle;Signal;HPM_P1;HPM_P2
2024/02/21 00:01:45;;;;;;;;;18.67;16.00;;;;;7.74;100.00;100252.44;6276255;20;3540921;-41
2024/02/21 00:04:13;;;;;;;;;17.50;17.50;;;;;7.56;100.00;100251.41;6307700;20;2822248;-42
2024/02/21 00:06:42;;;;;;;;;20.33;17.00;;;;;7.64;100.00;100243.97;6276778;20;3556695;-42
2024/02/21 00:09:11;;;;;;;;;17.67;17.00;;;;;7.63;100.00;100243.06;6272180;20;3553400;-42
2024/02/21 00:11:38;;;;;;;;;18.00;16.00;;;;;7.59;100.00;100246.81;6311228;20;2821270;-42
2024/02/21 00:14:07;;;;;;;;;17.33;15.67;;;;;7.44;100.00;100237.59;6274128;20;3554554;-42
2024/02/21 00:16:36;;;;;;;;;15.33;15.33;;;;;7.50;100.00;100244.50;6307697;20;3540930;-43
2024/02/21 00:19:04;;;;;;;;;16.00;16.00;;;;;7.60;100.00;100243.19;6310019;20;2818588;-42
2024/02/21 00:21:32;;;;;;;;;16.33;12.00;;;;;7.39;100.00;100238.72;6277766;20;3548176;-41
2024/02/21 00:24:00;;;;;;;;;15.00;14.00;;;;;7.53;100.00;100241.72;6304599;20;2806536;-41
2024/02/21 00:26:28;;;;;;;;;13.50;13.50;;;;;7.51;100.00;100245.38;6277050;20;2812884;-41
2024/02/21 00:28:56;;;;;;;;;15.00;13.50;;;;;7.51;100.00;100245.38;6276546;20;2806544;-41
2024/02/21 00:31:24;;;;;;;;;16.00;14.67;;;;;7.48;100.00;100243.72;6275284;20;3528391;-41
2024/02/21 00:33:53;;;;;;;;;14.33;13.67;;;;;7.39;100.00;100239.56;6305739;20;2809757;-45
2024/02/21 00:36:22;;;;;;;;;12.67;12.67;;;;;7.50;100.00;100233.81;6307270;20;3537767;-42
2024/02/21 00:38:49;;;;;;;;;15.50;15.50;;;;;7.52;100.00;100233.75;6309579;20;2821117;-44
2024/02/21 00:41:18;;;;;;;;;14.00;14.00;;;;;7.50;100.00;100230.25;6277257;20;3534639;-42
2024/02/21 00:43:48;;;;;;;;;15.33;13.33;;;;;7.51;100.00;100224.00;6272912;20;3533039;-43
2024/02/21 00:46:17;;;;;;;;;14.33;14.33;;;;;7.42;100.00;100219.88;6308391;20;3529432;-43
2024/02/21 00:48:46;;;;;;;;;15.67;14.67;;;;;7.49;100.00;100218.72;6305723;20;3527433;-44
2024/02/21 00:51:15;;;;;;;;;14.00;13.00;;;;;7.56;100.00;100217.53;6308241;20;3529438;-43
2024/02/21 00:53:43;;;;;;;;;20.00;17.33;;;;;7.63;100.00;100220.81;6304988;20;3553834;-42
2024/02/21 00:56:12;;;;;;;;;13.33;13.33;;;;;7.56;100.00;100220.22;6305117;20;3534724;-43
2024/02/21 00:58:40;;;;;;;;;15.00;15.00;;;;;7.53;100.00;100217.69;6308457;20;2797263;-42
2024/02/21 01:01:08;;;;;;;;;16.50;15.00;;;;;7.55;100.00;100218.47;6276092;20;2812814;-42
2024/02/21 01:03:35;;;;;;;;;17.00;15.00;;;;;7.54;100.00;100216.72;6280813;20;2811727;-43
2024/02/21 01:06:03;;;;;;;;;18.50;14.50;;;;;7.48;100.00;100217.84;6276525;20;2501021;-45
2024/02/21 01:08:31;;;;;;;;;17.50;13.50;;;;;7.51;100.00;100219.53;6281357;20;2813851;-43
2024/02/21 01:11:00;;;;;;;;;17.00;13.67;;;;;7.59;100.00;100214.75;6277889;20;3553925;-42
2024/02/21 01:13:29;;;;;;;;;16.67;15.00;;;;;7.66;100.00;100215.34;6307457;20;3553418;-43
2024/02/21 01:15:57;;;;;;;;;13.00;13.00;;;;;7.65;100.00;100214.47;6279185;20;3540902;-45
2024/02/21 01:18:26;;;;;;;;;16.67;11.00;;;;;7.71;100.00;100218.69;6310413;20;2800355;-44
2024/02/21 01:20:54;;;;;;;;;13.00;12.00;;;;;7.78;99.84;100213.97;6315761;20;2796140;-44
2024/02/21 01:23:23;;;;;;;;;13.00;9.20;;;;;7.85;99.51;100210.13;6302443;20;2776403;-45
2024/02/21 01:25:52;;;;;;;;;12.50;11.00;;;;;7.76;99.45;100215.84;6278889;20;2787933;-45
2024/02/21 01:28:20;;;;;;;;;17.00;16.00;;;;;7.76;99.61;100208.69;6281239;20;3540870;-44
2024/02/21 01:30:50;;;;;;;;;13.67;13.00;;;;;7.74;99.37;100213.25;6310962;20;3546233;-45
2024/02/21 01:33:18;;;;;;;;;12.00;12.00;;;;;7.81;98.35;100208.50;6314423;20;2809678;-46
2024/02/21 01:35:46;;;;;;;;;18.00;15.50;;;;;7.77;99.08;100206.91;6283115;20;2808626;-44
2024/02/21 01:38:14;;;;;;;;;15.50;12.00;;;;;7.87;98.15;100202.88;6283202;20;2818129;-43
2024/02/21 01:40:43;;;;;;;;;17.33;17.00;;;;;7.88;97.22;100207.31;6280473;20;3552379;-44
2024/02/21 01:43:19;;;;;;;;;13.00;11.60;;;;;7.93;96.36;100212.47;6304633;20;2789951;-43
2024/02/21 01:45:52;;;;;;;;;12.50;11.00;;;;;7.79;96.74;100205.88;6278915;20;2788880;-42
2024/02/21 01:48:23;;;;;;;;;12.33;11.67;;;;;7.58;98.53;100206.78;6278788;20;3525483;-42
2024/02/21 01:50:54;;;;;;;;;12.00;12.00;;;;;7.69;98.33;100216.09;6306853;20;2811762;-43
2024/02/21 01:53:35;;;;;;;;;15.00;13.00;;;;;7.76;96.47;100211.38;6311011;20;3516038;-42
2024/02/21 01:56:06;;;;;;;;;17.00;13.00;;;;;7.74;96.71;100209.69;6331386;20;2812785;-42
2024/02/21 01:58:37;;;;;;;;;17.67;13.67;;;;;7.77;96.51;100209.59;6276637;20;3549404;-42
2024/02/21 02:01:09;;;;;;;;;19.00;14.17;;;;;7.69;96.77;100204.56;6332997;20;2819116;-42
2024/02/21 02:03:38;;;;;;;;;8.50;8.50;;;;;7.61;96.78;100207.53;6327191;20;1802444;-44
2024/02/21 02:06:06;;;;;;;;;12.00;12.00;;;;;7.69;97.57;100204.56;6310559;20;2796149;-42
2024/02/21 02:08:36;;;;;;;;;10.80;10.80;;;;;7.70;97.31;100199.13;6306021;20;2792029;-43
2024/02/21 02:11:04;;;;;;;;;13.00;13.00;;;;;7.50;98.78;100196.41;6278720;20;2807604;-42
2024/02/21 02:13:33;;;;;;;;;12.00;12.00;;;;;7.53;99.60;100190.94;6279465;20;2790897;-42
2024/02/21 02:16:02;;;;;;;;;19.00;15.00;;;;;7.73;99.06;100190.09;6310139;20;3547192;-42
2024/02/21 02:18:30;;;;;;;;;18.00;14.33;;;;;7.44;100.00;100196.66;6277801;20;3548183;-44
2024/02/21 02:21:14;;;;;;;;;18.60;17.40;;;;;7.63;99.85;100184.28;6350098;20;1959836;-43
2024/02/21 02:23:42;;;;;;;;;17.00;14.00;;;;;7.48;100.00;100182.25;6306460;20;2824251;-43
2024/02/21 02:26:10;;;;;;;;;10.00;9.50;;;;;7.67;99.30;100179.69;6279126;20;2776318;-42
2024/02/21 02:28:38;;;;;;;;;16.00;10.00;;;;;7.33;100.00;100170.38;6278598;20;2789673;-42
2024/02/21 02:31:07;;;;;;;;;18.33;13.67;;;;;7.35;100.00;100179.22;6280183;20;3537788;-43
2024/02/21 02:33:34;;;;;;;;;14.00;12.00;;;;;7.37;100.00;100169.34;6305092;20;2791955;-42
2024/02/21 02:36:04;;;;;;;;;18.00;11.67;;;;;7.43;100.00;100176.22;6279836;20;3556537;-41
2024/02/21 02:38:31;;;;;;;;;11.00;10.00;;;;;7.39;100.00;100164.78;6313236;20;2794091;-44
2024/02/21 02:41:00;;;;;;;;;12.00;12.00;;;;;7.45;100.00;100164.53;6279760;20;2814828;-42
2024/02/21 02:43:28;;;;;;;;;17.00;16.00;;;;;7.33;100.00;100157.03;6309643;20;2809691;-43
2024/02/21 02:45:56;;;;;;;;;10.00;10.00;;;;;7.22;99.60;100160.13;6277368;20;2789898;-44
2024/02/21 02:48:23;;;;;;;;;11.00;10.00;;;;;7.48;99.36;100164.41;6277172;20;2783626;-42
2024/02/21 02:50:55;;;;;;;;;9.43;9.14;;;;;7.43;98.81;100165.53;6323624;20;1808071;-42
2024/02/21 02:53:25;;;;;;;;;9.17;9.00;;;;;7.40;98.58;100165.66;6350163;20;1804520;-44
2024/02/21 02:55:54;;;;;;;;;5.25;5.25;;;;;7.46;98.31;100155.59;6296377;20;1819139;-43
2024/02/21 02:58:22;;;;;;;;;6.75;6.75;;;;;7.44;98.04;100161.94;6328508;20;1818136;-43
2024/02/21 03:00:50;;;;;;;;;11.50;8.50;;;;;7.29;98.21;100154.53;6308082;20;2764873;-42
2024/02/21 03:03:18;;;;;;;;;6.00;6.00;;;;;7.25;97.40;100162.66;6277219;20;2751378;-43
2024/02/21 03:05:46;;;;;;;;;12.00;10.00;;;;;7.41;97.09;100162.91;6277027;20;2792026;-42
2024/02/21 03:08:15;;;;;;;;;10.00;9.00;;;;;7.40;97.10;100158.53;6281210;20;2760781;-42
2024/02/21 03:10:43;;;;;;;;;8.50;8.00;;;;;7.30;98.15;100173.19;6295670;20;1819115;-42
2024/02/21 03:13:12;;;;;;;;;8.00;8.00;;;;;7.29;97.58;100168.75;6326128;20;1805650;-43
2024/02/21 03:15:40;;;;;;;;;9.50;9.00;;;;;7.31;97.90;100158.00;6311138;20;2749244;-42
2024/02/21 03:18:08;;;;;;;;;8.00;6.00;;;;;7.23;97.97;100167.19;6281648;20;2739872;-42
2024/02/21 03:20:36;;;;;;;;;7.75;7.75;;;;;7.15;99.06;100174.66;6297768;20;1812626;-42
2024/02/21 03:23:05;;;;;;;;;8.25;8.25;;;;;7.28;96.96;100168.81;6325519;20;1810343;-42
2024/02/21 03:25:33;;;;;;;;;9.25;7.75;;;;;7.18;97.41;100166.50;6322738;20;1808759;-42
2024/02/21 03:28:01;;;;;;;;;7.00;7.00;;;;;7.12;97.03;100166.78;6306878;20;2746118;-41
2024/02/21 03:30:30;;;;;;;;;7.75;5.00;;;;;7.28;95.43;100166.16;6299253;20;1804486;-42
2024/02/21 03:32:58;;;;;;;;;8.00;8.00;;;;;7.19;95.93;100173.63;6324525;20;1806824;-43
2024/02/21 03:35:27;;;;;;;;;9.50;7.75;;;;;7.19;94.95;100172.75;6322463;20;1805674;-42
2024/02/21 03:37:55;;;;;;;;;8.00;7.00;;;;;7.24;93.62;100176.06;6311244;20;2742006;-43
2024/02/21 03:40:23;;;;;;;;;8.00;8.00;;;;;7.24;94.33;100187.66;6308035;20;2749270;-41
2024/02/21 03:42:50;;;;;;;;;8.00;8.00;;;;;7.30;94.20;100180.34;6277831;20;2740958;-41
2024/02/21 03:45:18;;;;;;;;;10.00;7.00;;;;;7.26;94.29;100180.41;6308073;20;2753425;-42
2024/02/21 03:47:48;;;;;;;;;11.00;8.00;;;;;7.37;94.25;100188.03;6299103;20;2753417;-42
2024/02/21 03:50:16;;;;;;;;;13.50;10.00;;;;;7.29;94.07;100187.44;6307886;20;2785753;-43
2024/02/21 03:52:44;;;;;;;;;8.00;8.00;;;;;6.77;97.05;100181.50;6277865;20;2745159;-42
2024/02/21 03:55:11;;;;;;;;;15.00;9.00;;;;;6.78;97.80;100181.41;6306711;20;2771109;-42
2024/02/21 03:57:39;;;;;;;;;11.50;10.00;;;;;6.97;98.04;100172.69;6274788;20;2784640;-42
2024/02/21 04:00:10;;;;;;;;;11.00;9.00;;;;;6.94;96.61;100181.69;6276012;20;2774394;-41
2024/02/21 04:02:38;;;;;;;;;10.00;9.00;;;;;6.40;99.99;100177.53;6275623;20;2763892;-42
2024/02/21 04:05:10;;;;;;;;;9.00;9.00;;;;;6.57;99.68;100180.44;6271764;20;2750306;-43
2024/02/21 04:07:40;;;;;;;;;8.25;8.00;;;;;6.63;99.20;100187.31;6292420;20;1808683;-43
2024/02/21 04:10:08;;;;;;;;;5.00;5.00;;;;;6.59;97.19;100180.38;6309556;20;2747166;-41
2024/02/21 04:12:38;;;;;;;;;7.50;5.00;;;;;6.40;99.19;100181.97;6276518;20;2741979;-42
2024/02/21 04:15:07;;;;;;;;;10.25;5.00;;;;;6.84;95.00;100184.78;6292322;20;1812999;-41
2024/02/21 04:17:37;;;;;;;;;9.25;7.00;;;;;6.85;92.69;100190.06;6327185;20;1807770;-44
2024/02/21 04:20:07;;;;;;;;;4.00;3.00;;;;;6.74;93.75;100187.81;6326279;20;1821072;-42
2024/02/21 04:22:36;;;;;;;;;7.25;4.75;;;;;6.69;94.06;100189.78;6327857;20;1810856;-42
2024/02/21 04:25:05;;;;;;;;;6.00;6.00;;;;;6.69;93.81;100184.44;6305437;20;2748207;-43
2024/02/21 04:27:33;;;;;;;;;7.50;7.50;;;;;6.36;95.19;100183.88;6279430;20;2734733;-41
2024/02/21 04:30:01;;;;;;;;;10.00;8.00;;;;;6.40;95.66;100187.31;6308774;20;2747151;-41
2024/02/21 04:32:28;;;;;;;;;14.00;9.00;;;;;6.20;95.95;100180.91;6275821;20;2759667;-42
2024/02/21 04:34:56;;;;;;;;;8.50;4.00;;;;;6.50;94.94;100188.72;6278906;20;2757605;-42
2024/02/21 04:37:24;;;;;;;;;7.00;7.00;;;;;6.46;95.05;100187.09;6314865;20;2730466;-41
2024/02/21 04:39:52;;;;;;;;;7.00;4.00;;;;;6.54;92.67;100187.69;6314481;20;2743720;-42
2024/02/21 04:42:20;;;;;;;;;8.00;4.50;;;;;6.50;92.71;100194.94;6313436;20;2746716;-42
2024/02/21 04:44:49;;;;;;;;;5.33;4.00;;;;;6.53;92.14;100188.59;6298929;20;1816016;-42
2024/02/21 04:47:17;;;;;;;;;6.00;6.00;;;;;6.43;92.51;100192.56;6314151;20;2748240;-41
2024/02/21 04:49:46;;;;;;;;;7.25;7.25;;;;;6.26;93.69;100191.34;6332767;20;1816161;-42
2024/02/21 04:52:13;;;;;;;;;6.00;6.00;;;;;6.39;93.79;100189.09;6313627;20;3461716;-41
2024/02/21 04:54:42;;;;;;;;;3.25;3.25;;;;;6.33;95.06;100186.66;6299990;20;1812845;-43
2024/02/21 04:57:16;;;;;;;;;9.50;8.00;;;;;6.18;95.08;100187.22;6313450;20;2753359;-43
2024/02/21 04:59:45;;;;;;;;;6.50;5.50;;;;;6.29;94.77;100185.03;6282541;20;2748174;-42
2024/02/21 05:02:14;;;;;;;;;8.00;6.00;;;;;6.17;95.22;100181.03;6313544;20;2770262;-42
2024/02/21 05:04:44;;;;;;;;;7.00;7.00;;;;;6.16;93.66;100184.59;6282402;20;2739899;-41
2024/02/21 05:07:12;;;;;;;;;8.00;6.00;;;;;6.07;94.94;100187.59;6281656;20;2745110;-43
2024/02/21 05:09:40;;;;;;;;;5.00;4.00;;;;;6.16;94.66;100195.25;6283462;20;2752325;-42
2024/02/21 05:12:08;;;;;;;;;8.00;4.00;;;;;6.17;94.00;100190.81;6278683;20;2752445;-41
2024/02/21 05:14:37;;;;;;;;;7.00;6.50;;;;;5.91;93.96;100193.41;6330877;20;1823308;-42
2024/02/21 05:17:05;;;;;;;;;3.00;1.00;;;;;6.04;94.33;100195.69;6313865;20;3450335;-42
2024/02/21 05:19:33;;;;;;;;;12.50;7.00;;;;;5.94;93.96;100190.69;6281502;20;2763943;-41
2024/02/21 05:22:01;;;;;;;;;7.00;7.00;;;;;5.91;94.89;100189.88;6280106;20;2736787;-40
2024/02/21 05:24:29;;;;;;;;;8.50;4.00;;;;;5.86;94.38;100187.38;6313328;20;2756620;-41
2024/02/21 05:26:58;;;;;;;;;11.00;6.25;;;;;5.87;95.11;100189.13;6295319;20;1826438;-43
2024/02/21 05:29:26;;;;;;;;;6.00;6.00;;;;;5.71;95.70;100190.56;6332087;20;1819265;-41
2024/02/21 05:31:56;;;;;;;;;4.00;4.00;;;;;5.75;95.72;100194.88;6313270;20;2751414;-41
2024/02/21 05:34:25;;;;;;;;;7.50;6.00;;;;;5.89;95.14;100191.72;6280451;20;2746122;-40
2024/02/21 05:36:53;;;;;;;;;8.00;5.00;;;;;5.67;95.86;100184.47;6312595;20;2750309;-41
2024/02/21 05:39:22;;;;;;;;;6.00;6.00;;;;;5.62;96.68;100189.06;6283534;20;2747158;-43
2024/02/21 05:41:50;;;;;;;;;10.50;6.50;;;;;5.46;96.75;100186.03;6280953;20;2758576;-41
2024/02/21 05:44:19;;;;;;;;;23.50;20.00;;;;;5.49;97.25;100199.25;6278020;20;2492441;-40
2024/02/21 05:46:47;;;;;;;;;31.50;26.50;;;;;5.32;97.74;100195.38;6275869;20;2500354;-41
2024/02/21 05:49:15;;;;;;;;;22.00;20.00;;;;;5.43;98.32;100194.13;6280527;20;2500349;-42
2024/02/21 05:51:43;;;;;;;;;21.33;17.00;;;;;5.31;99.00;100202.50;6281035;20;3549209;-41
2024/02/21 05:54:12;;;;;;;;;16.33;12.33;;;;;5.36;99.47;100211.22;6311119;20;2798187;-41
2024/02/21 05:56:44;;;;;;;;;11.00;11.00;;;;;5.55;99.33;100213.28;6310210;20;2782536;-41
2024/02/21 05:59:12;;;;;;;;;11.50;8.00;;;;;5.37;100.00;100212.97;6279332;20;2766945;-41
2024/02/21 06:01:40;;;;;;;;;7.00;7.00;;;;;5.38;99.89;100222.69;6281222;20;2740879;-41
2024/02/21 06:04:07;;;;;;;;;11.50;11.00;;;;;5.42;100.00;100218.13;6310782;20;2779508;-41
2024/02/21 06:06:35;;;;;;;;;12.00;7.50;;;;;5.30;100.00;100219.41;6280175;20;2763782;-42
2024/02/21 06:09:03;;;;;;;;;12.00;8.00;;;;;5.46;100.00;100222.47;6276224;20;2764879;-42
2024/02/21 06:11:31;;;;;;;;;14.00;11.00;;;;;7.17;90.99;100220.00;6281279;20;2784816;-41
2024/02/21 06:13:59;;;;;;;;;13.50;12.00;;;;;6.01;93.15;100215.34;6279412;20;2788908;-43
2024/02/21 06:16:28;;;;;;;;;17.33;13.33;;;;;5.94;96.29;100220.00;6279360;20;2806650;-43
2024/02/21 06:18:56;;;;;;;;;19.00;13.00;;;;;6.64;94.07;100233.59;6311060;20;3530480;-41
2024/02/21 06:21:30;;;;;;;;;16.67;14.00;;;;;10.69;70.58;100239.56;6334741;20;2821327;-41
2024/02/21 06:23:58;;;;;;;;;17.00;12.67;;;;;12.75;59.65;100252.91;6308684;20;3546133;-43
2024/02/21 06:26:26;;;;;;;;;14.00;13.00;;;;;13.32;54.42;100247.56;6312966;20;2805598;-42
2024/02/21 06:28:54;;;;;;;;;19.00;13.50;;;;;12.46;55.41;100247.47;6282377;20;2801430;-43
2024/02/21 06:31:22;;;;;;;;;14.50;14.50;;;;;7.93;75.18;100249.91;6282121;20;2810710;-42
2024/02/21 06:33:49;;;;;;;;;18.00;17.00;;;;;7.33;84.10;100249.66;6280142;20;2829458;-42
2024/02/21 06:36:17;;;;;;;;;16.00;12.00;;;;;7.08;86.59;100255.06;6280955;20;2805529;-42
2024/02/21 06:38:46;;;;;;;;;19.67;18.00;;;;;7.55;83.52;100255.00;6280220;20;3570143;-42
2024/02/21 06:41:19;;;;;;;;;24.00;23.00;;;;;7.18;85.58;100262.66;6277479;20;2845175;-43
2024/02/21 06:43:48;;;;;;;;;19.50;17.00;;;;;8.40;81.96;100266.66;6280966;20;2835737;-43
2024/02/21 06:46:29;;;;;;;;;37.00;33.33;;;;;7.92;82.96;100267.72;6275127;20;2867100;-44
2024/02/21 06:48:58;;;;;;;;;15.50;13.00;;;;;8.30;80.04;100275.97;6309072;20;2806598;-53
2024/02/21 06:51:27;;;;;;;;;7.50;6.00;;;;;9.10;77.53;100283.16;6298218;20;1805608;-52
2024/02/21 06:53:55;;;;;;;;;16.00;7.00;;;;;10.76;68.53;100292.88;6310588;20;2787831;-53
2024/02/21 06:56:28;;;;;;;;;10.00;7.00;;;;;10.70;64.51;100292.34;6281030;20;2758731;-54
2024/02/21 06:58:57;;;;;;;;;13.00;11.00;;;;;13.84;56.70;100303.53;6279347;20;2794232;-55
2024/02/21 07:01:26;;;;;;;;;15.33;13.33;;;;;14.84;49.66;100295.97;6274188;20;3524230;-55
2024/02/21 07:03:54;;;;;;;;;11.00;11.00;;;;;18.53;42.91;100307.31;6276513;20;2794387;-54
2024/02/21 07:06:23;;;;;;;;;13.00;12.00;;;;;18.09;42.09;100306.53;6280565;20;2787804;-53
2024/02/21 07:08:52;;;;;;;;;12.33;10.00;;;;;16.95;42.94;100308.47;6305912;20;2790083;-55
2024/02/21 07:11:19;;;;;;;;;14.50;12.00;;;;;18.23;41.38;100315.38;6313880;20;2789839;-55
2024/02/21 07:13:47;;;;;;;;;11.50;9.00;;;;;18.74;40.35;100307.34;6276224;20;2772213;-53
2024/02/21 07:16:17;;;;;;;;;10.60;10.20;;;;;18.91;40.12;100308.66;6303303;20;2776488;-55
2024/02/21 07:18:47;;;;;;;;;10.60;8.60;;;;;17.84;42.17;100307.66;6300402;20;2765996;-51
2024/02/21 07:21:16;;;;;;;;;9.40;9.40;;;;;18.84;39.99;100310.19;6303194;20;2764868;-43
2024/02/21 07:23:44;;;;;;;;;6.00;4.50;;;;;12.75;51.48;100301.41;6276510;20;2754426;-43
2024/02/21 07:26:13;;;;;;;;;15.33;13.00;;;;;10.64;62.12;100293.53;6279096;20;2788972;-44
2024/02/21 07:28:41;;;;;;;;;19.33;13.33;;;;;10.74;63.19;100297.47;6305204;20;3550274;-43
2024/02/21 07:31:10;;;;;;;;;12.00;10.00;;;;;10.16;68.24;100281.63;6309826;20;3389029;-43
2024/02/21 07:33:38;;;;;;;;;13.00;12.00;;;;;10.86;66.55;100292.41;6312365;20;2790001;-44
2024/02/21 07:36:11;;;;;;;;;8.00;8.00;;;;;10.33;66.19;100288.88;6280505;20;2749209;-43
2024/02/21 07:38:40;;;;;;;;;6.50;6.50;;;;;10.63;66.61;100289.09;6281727;20;2739841;-47
2024/02/21 07:41:08;;;;;;;;;6.50;6.50;;;;;10.92;66.16;100292.06;6280549;20;2742009;-43
2024/02/21 07:43:36;;;;;;;;;11.67;8.67;;;;;10.57;65.81;100292.09;6276519;20;2771141;-47
2024/02/21 07:46:08;;;;;;;;;11.00;9.57;;;;;10.81;66.26;100294.47;6354209;20;1804138;-46
2024/02/21 07:48:37;;;;;;;;;11.00;10.00;;;;;10.64;66.26;100306.97;6331865;20;2791984;-43
2024/02/21 07:51:05;;;;;;;;;7.00;5.50;;;;;10.60;65.59;100310.72;6279063;20;2750346;-45
2024/02/21 07:53:33;;;;;;;;;12.00;8.00;;;;;10.61;65.71;100309.81;6281522;20;2765785;-45
2024/02/21 07:56:02;;;;;;;;;45.00;37.67;;;;;9.97;67.90;100307.63;6278135;20;2857669;-45
2024/02/21 07:58:31;;;;;;;;;32.67;30.67;;;;;9.59;68.90;100303.19;6309725;20;3575358;-45
2024/02/21 08:01:01;;;;;;;;;9.00;9.00;;;;;10.14;67.91;100320.22;6300039;20;2750346;-44
2024/02/21 08:03:29;;;;;;;;;3.00;3.00;;;;;9.78;66.46;100311.22;6311424;20;2756613;-44
2024/02/21 08:05:56;;;;;;;;;7.00;7.00;;;;;9.73;67.24;100310.56;6278142;20;2743045;-45
2024/02/21 08:08:24;;;;;;;;;14.50;10.00;;;;;9.67;68.88;100324.28;6279038;20;2790922;-44
2024/02/21 08:10:54;;;;;;;;;10.00;9.40;;;;;8.98;73.13;100311.41;6303520;20;2751399;-43
2024/02/21 08:13:23;;;;;;;;;16.50;15.00;;;;;8.43;76.41;100309.31;6277318;20;2814906;-42
2024/02/21 08:15:53;;;;;;;;;21.50;17.50;;;;;9.05;74.19;100310.16;6278163;20;2841949;-43
2024/02/21 08:18:22;;;;;;;;;12.00;11.00;;;;;8.85;76.38;100305.72;6278776;20;2792162;-42
2024/02/21 08:20:50;;;;;;;;;9.50;9.50;;;;;8.80;76.06;100307.72;6316978;20;2766946;-42
2024/02/21 08:23:19;;;;;;;;;14.00;10.50;;;;;9.32;74.10;100310.72;6279901;20;2792005;-43
2024/02/21 08:25:49;;;;;;;;;13.00;10.00;;;;;9.92;70.81;100320.41;6304714;20;2779466;-44
2024/02/21 08:28:17;;;;;;;;;9.00;7.50;;;;;10.09;69.89;100307.03;6284493;20;2732663;-43
2024/02/21 08:30:47;;;;;;;;;5.00;2.00;;;;;10.28;68.40;100309.69;6327774;20;1807655;-42
2024/02/21 08:33:18;;;;;;;;;7.83;7.83;;;;;10.28;66.91;100313.25;6354398;20;1796151;-42
2024/02/21 08:35:46;;;;;;;;;10.00;8.50;;;;;10.40;67.62;100311.78;6279907;20;2764987;-45
2024/02/21 08:38:14;;;;;;;;;12.00;10.50;;;;;10.20;67.28;100315.41;6278289;20;2788866;-43
2024/02/21 08:40:42;;;;;;;;;7.50;6.00;;;;;10.14;66.18;100318.41;6283470;20;2737818;-43
2024/02/21 08:43:10;;;;;;;;;12.50;10.50;;;;;9.43;69.05;100319.13;6313323;20;2789963;-42
2024/02/21 08:45:38;;;;;;;;;17.50;16.00;;;;;9.20;71.32;100316.63;6275675;20;2822218;-42
2024/02/21 08:48:08;;;;;;;;;7.75;6.75;;;;;10.22;65.86;100324.28;6295339;20;1810844;-44
2024/02/21 08:50:36;;;;;;;;;5.50;4.50;;;;;10.20;64.40;100325.28;6310690;20;2750299;-43
2024/02/21 08:53:06;;;;;;;;;9.20;6.20;;;;;10.16;64.68;100313.81;6302809;20;2748220;-42
2024/02/21 08:55:35;;;;;;;;;8.00;8.00;;;;;10.53;64.68;100307.50;6311597;20;2751297;-41
2024/02/21 08:58:04;;;;;;;;;8.00;7.50;;;;;9.96;65.92;100311.28;6276306;20;2737804;-41
2024/02/21 09:00:32;;;;;;;;;9.50;5.00;;;;;10.55;65.58;100310.09;6280503;20;2759672;-43
2024/02/21 09:03:01;;;;;;;;;26.00;20.00;;;;;9.63;68.83;100309.25;6275960;20;2847209;-41
2024/02/21 09:05:29;;;;;;;;;4.00;4.00;;;;;9.14;69.32;100306.22;6281492;20;2754534;-43
2024/02/21 09:07:57;;;;;;;;;6.00;6.00;;;;;9.65;68.80;100312.75;6278989;20;2737845;-43
2024/02/21 09:10:26;;;;;;;;;7.00;6.00;;;;;10.27;66.62;100316.00;6325593;20;1807719;-42
2024/02/21 09:12:53;;;;;;;;;6.50;6.00;;;;;10.61;60.75;100315.19;6311030;20;2736740;-42
2024/02/21 09:15:21;;;;;;;;;4.50;2.50;;;;;10.99;60.00;100314.97;6278807;20;2745156;-41
2024/02/21 09:17:49;;;;;;;;;7.00;6.00;;;;;10.65;60.08;100327.47;6279428;20;2739894;-41
2024/02/21 09:20:16;;;;;;;;;4.00;3.00;;;;;10.46;58.76;100327.56;6280212;20;2756542;-45
2024/02/21 09:22:44;;;;;;;;;6.50;3.00;;;;;10.94;59.06;100327.78;6281259;20;2738869;-42
2024/02/21 09:25:13;;;;;;;;;5.00;3.00;;;;;10.90;57.35;100321.72;6283423;20;2739859;-41
2024/02/21 09:27:40;;;;;;;;;6.00;3.50;;;;;11.04;57.72;100326.34;6284535;20;2748318;-42
2024/02/21 09:30:09;;;;;;;;;4.00;3.00;;;;;11.16;58.62;100338.25;6302049;20;1812914;-41
2024/02/21 09:32:39;;;;;;;;;2.00;2.00;;;;;11.49;56.29;100332.88;6332508;20;1809694;-41
2024/02/21 09:35:07;;;;;;;;;0.00;0.00;;;;;11.45;55.63;100333.13;6316788;20;2734657;-42
2024/02/21 09:37:37;;;;;;;;;1.75;1.75;;;;;11.69;54.98;100333.56;6302144;20;1811895;-42
2024/02/21 09:40:07;;;;;;;;;1.00;1.00;;;;;11.38;54.58;100329.91;6330864;20;1802476;-41
2024/02/21 09:42:41;;;;;;;;;6.00;6.00;;;;;12.17;54.28;100329.09;6316978;20;2748555;-42
2024/02/21 09:45:30;;;;;;;;;2.00;2.00;;;;;11.76;55.18;100326.91;6280727;20;2737809;-41
2024/02/21 09:49:03;;;;;;;;;1.00;1.00;;;;;11.36;55.06;100323.75;6300305;20;1803519;-42
2024/02/21 09:51:35;;;;;;;;;2.00;2.00;;;;;10.52;56.62;100326.38;6312019;20;2752469;-42
2024/02/21 09:54:04;;;;;;;;;1.50;1.50;;;;;11.32;55.83;100328.44;6286100;20;2733659;-42
2024/02/21 09:56:47;;;;;;;;;1.75;1.75;;;;;11.68;53.43;100329.16;6301035;20;1804605;-42
2024/02/21 09:59:17;;;;;;;;;4.00;4.00;;;;;11.70;54.29;100327.25;6316636;20;2753425;-42
2024/02/21 10:01:50;;;;;;;;;3.00;3.00;;;;;11.78;54.58;100315.09;6282114;20;2740946;-41
2024/02/21 10:04:21;;;;;;;;;45.33;33.33;;;;;12.09;52.75;100318.78;6279280;20;3612832;-41
2024/02/21 10:06:50;;;;;;;;;1.75;1.75;;;;;11.09;54.66;100305.47;6330185;20;1800494;-42
2024/02/21 10:09:27;;;;;;;;;0.00;0.00;;;;;11.38;52.77;100297.66;6328585;20;1807757;-41
2024/02/21 10:12:10;;;;;;;;;3.50;2.00;;;;;11.56;52.71;100299.31;6332343;20;1811866;-42
2024/02/21 10:14:39;;;;;;;;;2.00;2.00;;;;;10.66;56.22;100291.59;6313819;20;2735861;-42
2024/02/21 10:17:09;;;;;;;;;4.50;1.25;;;;;11.52;54.51;100300.44;6301719;20;1803600;-43
2024/02/21 10:19:40;;;;;;;;;83.25;73.50;;;;;11.10;55.62;100291.06;6314614;20;4421296;-42
2024/02/21 10:22:09;;;;;;;;;1.00;1.00;;;;;12.04;52.28;100293.94;6331583;20;1803527;-41
2024/02/21 10:24:40;;;;;;;;;2.00;2.00;;;;;12.04;51.93;100294.81;6314110;20;2739882;-43
2024/02/21 10:27:11;;;;;;;;;13.50;11.50;;;;;10.89;53.46;100286.84;6280362;20;2797173;-41
2024/02/21 10:29:41;;;;;;;;;9.00;7.50;;;;;11.64;53.51;100277.38;6285745;20;2745172;-41
2024/02/21 10:32:11;;;;;;;;;4.00;1.00;;;;;12.01;51.01;100286.06;6288693;20;2731632;-42
2024/02/21 10:34:42;;;;;;;;;11.00;11.00;;;;;12.15;51.44;100279.88;6279271;20;3509687;-43
2024/02/21 10:37:13;;;;;;;;;20.67;18.67;;;;;11.48;51.75;100266.59;6313853;20;3572147;-42
2024/02/21 10:39:44;;;;;;;;;4.00;2.75;;;;;12.23;50.39;100269.50;6300133;20;1813774;-42
2024/02/21 10:42:12;;;;;;;;;2.00;2.00;;;;;11.73;51.04;100266.06;6315383;20;2737789;-44
2024/02/21 10:44:41;;;;;;;;;6.00;3.00;;;;;12.24;50.44;100269.44;6281976;20;2741987;-41
2024/02/21 10:47:14;;;;;;;;;6.00;4.00;;;;;12.36;49.49;100259.75;6282701;20;2752497;-41
2024/02/21 10:49:44;;;;;;;;;3.00;2.00;;;;;12.33;49.48;100251.84;6279926;20;2734696;-41
2024/02/21 10:53:05;;;;;;;;;3.00;2.50;;;;;12.43;49.33;100247.66;6282460;20;2754454;-42
2024/02/21 10:55:48;;;;;;;;;4.00;3.00;;;;;11.57;52.54;100231.13;6280937;20;2756536;-42
2024/02/21 10:58:15;;;;;;;;;1.00;1.00;;;;;10.60;53.34;100242.75;6281292;20;2729150;-41
2024/02/21 11:00:43;;;;;;;;;3.50;2.00;;;;;11.62;52.57;100234.41;6282403;20;2747172;-42
2024/02/21 11:03:12;;;;;;;;;3.00;1.00;;;;;11.92;51.30;100230.06;6280211;20;2458649;-42
2024/02/21 11:05:42;;;;;;;;;6.00;3.00;;;;;11.76;51.61;100230.91;6290490;20;2635723;-42
2024/02/21 11:08:10;;;;;;;;;2.00;2.00;;;;;12.81;49.65;100227.41;6279567;20;2746117;-42
2024/02/21 11:10:40;;;;;;;;;3.50;3.50;;;;;12.92;49.58;100228.44;6280163;20;2748220;-42
2024/02/21 11:13:09;;;;;;;;;4.00;3.00;;;;;12.87;49.47;100218.94;6282254;20;2756548;-42
2024/02/21 11:15:37;;;;;;;;;4.00;4.00;;;;;12.46;50.73;100208.91;6282984;20;2756576;-44